Beryl, UT (84714)

4:09 AM MST on February 01, 2015 (GMT -0700)
MesoWest Beryl Junction UT US | Change Station
CLOSE
Current Station
Personal Weather Station
Location: Beryl, UT
Elevation: 5187 ft
Nearby Weather Stations

Elev 5187 ft 37.72 °N, 113.70 °W | Updated 39 minutes ago

Clear
Clear
27 °F
Feels Like 22 °F
N
4
Wind Variable Wind from NW
Gusts 7.0 mph

Today
High -- | Low -- °F
--% Chance of Precip.
Yesterday
High -- | Low -- °F
Precip. -- in
7:38 AM 5:58 PM
Waxing Gibbous, 94% visible
Pressure 30.19 in
Visibility 10.0 miles
Clouds Clear
Windchill 22 °F
Dew Point 26 °F
Humidity 95%
Rainfall -999.00 in
Snow Depth Not available.
UV 0 out of 12
Pollen .30 out of 12
Air Quality Not available.
Flu Activity Not available.
METAR KCDC 011053Z AUTO 00000KT 10SM CLR M04/M06 A3016 RMK AO2 SLP221 I1001 T10391056

More Conditions Fewer Conditions

Pressure 30.19 in
Visibility 10.0 miles
Clouds Clear
Windchill 22 °F
Dew Point 26 °F
Humidity 95%
Rainfall -999.00 in
Snow Depth Not available.
UV 0 out of 12
Pollen .30 out of 12
Air Quality Not available.
Flu Activity Not available.
METAR KCDC 011053Z AUTO 00000KT 10SM CLR M04/M06 A3016 RMK AO2 SLP221 I1001 T10391056

More Conditions Fewer Conditions

10-Day Weather Forecast

Almanac

Astronomy

Feb. 01, 2015 Rise Set
Actual Time
Civil Twilight
Nautical Twilight
Astronomical Twilight
Moon
Length of Visible Light
Length of Day
Tomorrow will be .
, % of the Moon is Illuminated

Today's Extremes

State Highs State Lows

Community

WunderPhotos

Upload Photos

1,792,345 photos uploaded!

WunderBlogs® & News

Nearby

Air Quality

  Air Quality AQ Index Pollutant
Not available.

Snow Depth

Station Depth Elevation

Earthquake Activity

City Distance Mag. Time & Date
Minimum magnitude displayed is 2.5.

Coastal Water Temperatures

Place Temperature

Nearby Weather Stations